createdAt,value
2022-11-13T00:01:52.454Z,31.13
2022-11-13T00:03:54.170Z,25.83
2022-11-13T00:06:00.613Z,35.23
2022-11-13T00:08:02.495Z,28.98
2022-11-13T00:10:04.714Z,20.42
2022-11-13T00:12:06.477Z,23.67
2022-11-13T00:14:08.725Z,36.47
2022-11-13T00:16:13.651Z,26.27
2022-11-13T00:18:15.356Z,17.63
2022-11-13T00:20:18.426Z,32.85
2022-11-13T00:24:21.797Z,21.15
2022-11-13T00:26:29.098Z,24.50
2022-11-13T00:28:31.027Z,25.67
2022-11-13T00:30:32.783Z,31.25
2022-11-13T00:32:34.542Z,33.03
2022-11-13T00:34:51.521Z,36.63
2022-11-13T00:36:53.209Z,51.42
2022-11-13T00:38:55.652Z,46.85
2022-11-13T00:40:57.883Z,34.95
2022-11-13T00:42:59.574Z,43.28
2022-11-13T00:45:01.269Z,62.37
2022-11-13T00:47:03.020Z,82.97
2022-11-13T00:49:05.193Z,34.67
2022-11-13T00:51:07.196Z,24.38
2022-11-13T00:53:11.560Z,28.20
2022-11-13T00:55:15.795Z,25.67
2022-11-13T00:57:17.565Z,58.15
2022-11-13T00:59:19.319Z,51.03
2022-11-13T01:01:21.317Z,53.17
2022-11-13T01:03:23.031Z,46.42
2022-11-13T01:05:25.102Z,58.78
2022-11-13T01:07:26.866Z,31.50
2022-11-13T01:09:28.628Z,22.70
2022-11-13T01:11:31.007Z,70.40
2022-11-13T01:13:32.850Z,28.08
2022-11-13T01:15:34.630Z,31.67
2022-11-13T01:17:36.794Z,24.65
2022-11-13T01:19:38.778Z,41.88
2022-11-13T01:21:40.534Z,47.75
2022-11-13T01:23:42.903Z,24.90
2022-11-13T01:25:44.635Z,23.55
2022-11-13T01:27:46.324Z,28.67
2022-11-13T01:29:48.108Z,41.28
2022-11-13T01:31:49.830Z,19.13
2022-11-13T01:33:51.728Z,42.00
2022-11-13T01:35:59.309Z,49.10
2022-11-13T01:38:01.058Z,28.48
2022-11-13T01:40:03.406Z,25.20
2022-11-13T01:42:05.289Z,54.38
2022-11-13T01:44:13.248Z,23.08
2022-11-13T01:46:26.896Z,32.03
2022-11-13T01:48:39.924Z,21.45
2022-11-13T01:50:41.758Z,33.00
2022-11-13T01:52:43.600Z,22.75
2022-11-13T01:55:03.085Z,51.25
2022-11-13T01:57:05.921Z,22.27
2022-11-13T01:59:10.661Z,32.65
2022-11-13T02:01:12.362Z,37.88
2022-11-13T02:03:14.117Z,28.27
2022-11-13T02:05:15.915Z,25.90
2022-11-13T02:07:21.570Z,26.38
2022-11-13T02:09:36.784Z,19.38
2022-11-13T02:11:39.319Z,23.55
2022-11-13T02:13:41.617Z,27.40
2022-11-13T02:15:45.692Z,30.95
2022-11-13T02:17:56.670Z,21.73
2022-11-13T02:20:02.343Z,26.15
2022-11-13T02:22:06.635Z,18.65
2022-11-13T02:24:18.016Z,27.60
2022-11-13T02:26:21.537Z,36.42
2022-11-13T02:28:23.231Z,19.55
2022-11-13T02:30:32.014Z,15.73
2022-11-13T02:32:33.740Z,38.85
2022-11-13T02:34:35.418Z,40.73
2022-11-13T02:36:37.170Z,42.37
2022-11-13T02:38:41.048Z,23.30
2022-11-13T02:40:43.040Z,20.75
2022-11-13T02:42:44.765Z,18.95
2022-11-13T02:44:46.434Z,34.90
2022-11-13T02:46:48.111Z,47.83
2022-11-13T02:48:49.925Z,40.95
2022-11-13T02:50:51.654Z,54.20
2022-11-13T02:52:53.483Z,44.63
2022-11-13T02:54:55.238Z,35.22
2022-11-13T02:56:56.938Z,28.50
2022-11-13T02:58:58.630Z,12.30
2022-11-13T03:01:02.612Z,24.23
2022-11-13T03:03:04.456Z,24.27
2022-11-13T03:05:14.248Z,16.75
2022-11-13T03:07:16.677Z,13.95
2022-11-13T03:09:18.404Z,11.27
2022-11-13T03:11:20.101Z,13.77
2022-11-13T03:13:21.961Z,10.77
2022-11-13T03:15:23.698Z,9.82
2022-11-13T03:17:26.190Z,12.85
2022-11-13T03:19:28.327Z,10.90
2022-11-13T03:21:31.377Z,12.75
2022-11-13T03:23:33.067Z,10.52
2022-11-13T03:25:35.027Z,13.93
2022-11-13T03:27:36.851Z,23.95
2022-11-13T03:29:38.735Z,16.20
2022-11-13T03:31:40.641Z,14.07
2022-11-13T03:33:42.465Z,16.73
2022-11-13T03:35:47.007Z,32.53
2022-11-13T03:37:49.023Z,19.15
2022-11-13T03:39:50.770Z,15.90
2022-11-13T03:41:52.496Z,32.67
2022-11-13T03:43:54.222Z,21.17
2022-11-13T03:45:56.037Z,22.33
2022-11-13T03:47:57.748Z,28.15
2022-11-13T03:49:59.440Z,16.67
2022-11-13T03:52:01.145Z,23.57
2022-11-13T03:54:02.965Z,17.20
2022-11-13T03:56:04.987Z,17.77
2022-11-13T03:58:06.915Z,17.40
2022-11-13T04:00:09.373Z,20.55
2022-11-13T04:02:11.091Z,17.40
2022-11-13T04:04:12.809Z,23.07
2022-11-13T04:06:14.901Z,13.87
2022-11-13T04:08:17.361Z,15.02
2022-11-13T04:10:19.297Z,13.23
2022-11-13T04:12:21.042Z,15.23
2022-11-13T04:14:22.709Z,15.30
2022-11-13T04:16:24.478Z,15.77
2022-11-13T04:18:26.579Z,42.37
2022-11-13T04:20:29.991Z,24.17
2022-11-13T04:22:31.691Z,41.40
2022-11-13T04:24:33.558Z,28.77
2022-11-13T04:26:35.216Z,32.20
2022-11-13T04:28:36.997Z,29.83
2022-11-13T04:30:39.097Z,16.73
2022-11-13T04:32:40.815Z,16.65
2022-11-13T04:34:42.528Z,61.43
2022-11-13T04:36:44.191Z,25.20
2022-11-13T04:38:45.917Z,23.75
2022-11-13T04:41:12.222Z,63.73
2022-11-13T04:43:13.961Z,30.38
2022-11-13T04:45:27.502Z,19.23
2022-11-13T04:47:29.290Z,19.45
2022-11-13T04:49:30.994Z,23.73
2022-11-13T04:51:32.886Z,44.33
2022-11-13T04:53:34.770Z,23.13
2022-11-13T04:55:36.556Z,17.17
2022-11-13T04:57:38.975Z,25.47
2022-11-13T04:59:40.715Z,16.23
2022-11-13T05:01:42.531Z,26.60
2022-11-13T05:03:44.335Z,38.40
2022-11-13T05:05:46.075Z,20.10
2022-11-13T05:07:47.785Z,15.50
2022-11-13T05:09:49.513Z,20.63
2022-11-13T05:11:51.195Z,32.50
2022-11-13T05:13:52.916Z,16.93
2022-11-13T05:16:03.832Z,17.47
2022-11-13T05:18:05.722Z,14.95
2022-11-13T05:20:07.974Z,48.70
2022-11-13T05:22:09.934Z,13.40
2022-11-13T05:24:12.198Z,43.38
2022-11-13T05:26:14.223Z,46.20
2022-11-13T05:28:15.968Z,17.45
2022-11-13T05:30:17.872Z,19.17
2022-11-13T05:32:19.590Z,12.90
2022-11-13T05:34:21.476Z,27.83
2022-11-13T05:36:23.430Z,15.60
2022-11-13T05:38:25.256Z,14.20
2022-11-13T05:40:27.151Z,21.98
2022-11-13T05:42:28.873Z,14.80
2022-11-13T05:44:30.552Z,14.70
2022-11-13T05:46:32.243Z,10.63
2022-11-13T05:48:34.741Z,13.10
2022-11-13T05:50:36.493Z,32.00
2022-11-13T05:52:38.229Z,20.10
2022-11-13T05:54:39.966Z,11.83
2022-11-13T05:56:41.908Z,24.90
2022-11-13T05:58:44.559Z,36.05
2022-11-13T06:02:48.092Z,27.55
2022-11-13T06:04:51.643Z,18.35
2022-11-13T06:06:53.565Z,17.35
2022-11-13T06:08:56.256Z,29.35
2022-11-13T06:11:02.997Z,30.63
2022-11-13T06:13:04.692Z,25.63
2022-11-13T06:15:06.781Z,21.87
2022-11-13T06:17:08.458Z,18.85
2022-11-13T06:19:11.262Z,29.67
2022-11-13T06:21:17.783Z,18.33
2022-11-13T06:23:19.513Z,15.77
2022-11-13T06:25:21.199Z,15.40
2022-11-13T06:27:22.866Z,23.83
2022-11-13T06:29:24.547Z,38.90
2022-11-13T06:31:28.634Z,20.37
2022-11-13T06:33:30.422Z,20.75
2022-11-13T06:35:32.286Z,13.93
2022-11-13T06:37:34.919Z,15.73
2022-11-13T06:41:39.608Z,41.03
2022-11-13T06:43:42.256Z,24.08
2022-11-13T06:47:45.855Z,27.10
2022-11-13T06:49:47.757Z,16.15
2022-11-13T06:51:49.436Z,22.85
2022-11-13T06:53:51.669Z,17.35
2022-11-13T06:55:53.506Z,14.30
2022-11-13T06:57:55.330Z,42.63
2022-11-13T06:59:57.070Z,28.17
2022-11-13T07:01:58.752Z,17.83
2022-11-13T07:04:00.465Z,20.97
2022-11-13T07:06:06.985Z,31.70
2022-11-13T07:08:08.750Z,25.73
2022-11-13T07:10:10.553Z,18.77
2022-11-13T07:12:12.286Z,16.83
2022-11-13T07:14:14.050Z,14.27
2022-11-13T07:16:18.170Z,14.27
2022-11-13T07:18:23.967Z,15.07
2022-11-13T07:20:26.026Z,16.33
2022-11-13T07:22:30.807Z,28.90
2022-11-13T07:24:32.497Z,25.58
2022-11-13T07:26:34.224Z,30.10
2022-11-13T07:28:36.107Z,22.97
2022-11-13T07:30:38.044Z,46.13
2022-11-13T07:32:39.814Z,26.63
2022-11-13T07:34:41.529Z,19.00
2022-11-13T07:36:43.287Z,25.00
2022-11-13T07:38:45.127Z,26.40
2022-11-13T07:40:46.812Z,18.80
2022-11-13T07:42:48.536Z,25.83
2022-11-13T07:44:54.940Z,23.00
2022-11-13T07:46:57.291Z,53.70
2022-11-13T07:48:59.066Z,41.83
2022-11-13T07:51:02.126Z,30.40
2022-11-13T07:53:07.252Z,22.98
2022-11-13T07:55:09.213Z,11.05
2022-11-13T07:57:10.907Z,25.10
2022-11-13T07:59:12.819Z,14.25
2022-11-13T08:01:14.702Z,13.68
2022-11-13T08:03:17.444Z,16.45
2022-11-13T08:05:19.643Z,13.52
2022-11-13T08:07:21.377Z,14.60
2022-11-13T08:09:23.185Z,15.17
2022-11-13T08:11:24.874Z,16.90
2022-11-13T08:13:26.616Z,10.47
2022-11-13T08:15:29.784Z,12.63
2022-11-13T08:17:31.555Z,13.43
2022-11-13T08:19:33.296Z,25.50
2022-11-13T08:21:35.802Z,21.77
2022-11-13T08:23:37.680Z,10.18
2022-11-13T08:25:39.870Z,17.70
2022-11-13T08:27:41.566Z,14.85
2022-11-13T08:29:43.304Z,11.63
2022-11-13T08:31:45.136Z,9.57
2022-11-13T08:33:46.872Z,9.98
2022-11-13T08:35:56.641Z,21.43
2022-11-13T08:38:06.313Z,14.63
2022-11-13T08:40:09.023Z,15.23
2022-11-13T08:42:10.769Z,14.43
2022-11-13T08:44:13.387Z,16.20
2022-11-13T08:48:17.242Z,13.88
2022-11-13T08:50:19.077Z,13.43
2022-11-13T08:52:20.935Z,12.57
2022-11-13T08:54:22.726Z,11.85
2022-11-13T08:56:24.441Z,13.38
2022-11-13T08:58:26.422Z,13.03
2022-11-13T09:00:30.046Z,12.63
2022-11-13T09:02:31.976Z,12.50
2022-11-13T09:04:33.689Z,16.08
2022-11-13T09:06:35.569Z,13.47
2022-11-13T09:08:37.313Z,13.40
2022-11-13T09:10:39.145Z,15.73
2022-11-13T09:12:40.877Z,15.68
2022-11-13T09:14:42.602Z,13.03
2022-11-13T09:16:44.490Z,14.23
2022-11-13T09:18:49.666Z,15.00
2022-11-13T09:20:51.442Z,12.63
2022-11-13T09:23:00.878Z,14.93
2022-11-13T09:25:02.608Z,13.35
2022-11-13T09:27:04.598Z,12.97
2022-11-13T09:29:06.426Z,13.82
2022-11-13T09:31:08.331Z,13.27
2022-11-13T09:33:10.920Z,13.30
2022-11-13T09:37:15.697Z,13.52
2022-11-13T09:39:17.393Z,14.50
2022-11-13T09:41:27.203Z,13.75
2022-11-13T09:43:33.853Z,13.88
2022-11-13T09:45:35.723Z,13.93
2022-11-13T09:47:42.403Z,13.57
2022-11-13T09:49:49.419Z,13.00
2022-11-13T09:51:57.263Z,15.48
2022-11-13T09:54:02.708Z,14.45
2022-11-13T09:56:23.927Z,13.27
2022-11-13T09:58:36.131Z,14.80
2022-11-13T10:00:38.080Z,17.05
2022-11-13T10:02:58.260Z,15.35
2022-11-13T10:05:23.580Z,21.73
2022-11-13T10:07:39.025Z,12.50
2022-11-13T10:10:01.660Z,13.02
2022-11-13T10:12:07.588Z,13.43
2022-11-13T10:14:24.700Z,13.10
2022-11-13T10:16:26.330Z,14.00
2022-11-13T10:18:34.949Z,17.20
2022-11-13T10:20:42.952Z,12.50
2022-11-13T10:22:51.706Z,12.35
2022-11-13T10:24:58.439Z,13.85
2022-11-13T10:27:00.188Z,13.68
2022-11-13T10:29:11.287Z,15.50
2022-11-13T10:31:13.646Z,13.80
2022-11-13T10:33:19.076Z,13.48
2022-11-13T10:35:23.412Z,12.45
2022-11-13T10:37:50.353Z,14.27
2022-11-13T10:39:52.078Z,12.52
2022-11-13T10:41:55.337Z,12.60
2022-11-13T10:43:59.454Z,12.20
2022-11-13T10:46:04.410Z,14.00
2022-11-13T10:48:06.284Z,12.80
2022-11-13T10:50:15.184Z,12.02
2022-11-13T10:52:28.145Z,12.60
2022-11-13T10:56:35.108Z,14.23
2022-11-13T10:58:36.836Z,12.93
2022-11-13T11:00:41.433Z,13.75
2022-11-13T11:02:49.263Z,21.48
2022-11-13T11:05:16.096Z,29.27
2022-11-13T11:07:23.310Z,14.70
2022-11-13T11:09:30.898Z,13.48
2022-11-13T11:11:51.201Z,12.32
2022-11-13T11:13:52.927Z,13.23
2022-11-13T11:15:58.834Z,12.20
2022-11-13T11:18:26.696Z,11.77
2022-11-13T11:20:50.729Z,11.20
2022-11-13T11:23:03.210Z,10.50
2022-11-13T11:25:13.276Z,11.73
2022-11-13T11:27:17.993Z,11.30
2022-11-13T11:29:28.935Z,10.15
2022-11-13T11:31:48.725Z,10.80
2022-11-13T11:34:17.936Z,12.50
2022-11-13T11:36:36.809Z,10.52
2022-11-13T11:39:12.484Z,9.52
2022-11-13T11:41:17.074Z,10.55
2022-11-13T11:43:35.108Z,10.15
2022-11-13T11:45:41.824Z,10.60
2022-11-13T11:47:44.363Z,10.07
2022-11-13T11:49:46.287Z,10.85
2022-11-13T11:52:21.570Z,12.18
2022-11-13T11:54:53.135Z,12.95
2022-11-13T11:57:06.905Z,17.35
2022-11-13T11:59:47.841Z,16.88
2022-11-13T12:02:27.512Z,13.32
2022-11-13T12:05:04.664Z,15.38
2022-11-13T12:07:15.318Z,14.35
2022-11-13T12:09:32.449Z,12.90
2022-11-13T12:11:38.102Z,10.38
2022-11-13T12:13:59.243Z,13.35
2022-11-13T12:16:25.627Z,12.63
2022-11-13T12:18:42.489Z,14.85
2022-11-13T12:21:08.490Z,11.40
2022-11-13T12:23:16.137Z,12.30
2022-11-13T12:25:47.448Z,12.95
2022-11-13T12:28:19.929Z,10.68
2022-11-13T12:30:30.288Z,11.20
2022-11-13T12:33:04.254Z,12.27
2022-11-13T12:35:19.920Z,12.13
2022-11-13T12:37:47.070Z,11.52
2022-11-13T12:40:03.521Z,11.77
2022-11-13T12:42:29.504Z,10.52
2022-11-13T12:44:41.061Z,11.18
2022-11-13T12:46:43.898Z,11.23
2022-11-13T12:48:48.086Z,10.60
2022-11-13T12:51:04.466Z,11.68
2022-11-13T12:53:12.161Z,11.85
2022-11-13T12:55:31.961Z,9.63
2022-11-13T12:57:33.716Z,12.23
2022-11-13T12:59:39.354Z,11.25
2022-11-13T13:01:52.233Z,11.65
2022-11-13T13:04:21.923Z,9.45
2022-11-13T13:06:29.758Z,9.60
2022-11-13T13:08:54.748Z,11.13
2022-11-13T13:11:03.658Z,12.60
2022-11-13T13:13:37.400Z,11.20
2022-11-13T13:15:43.019Z,11.93
2022-11-13T13:17:44.703Z,9.80
2022-11-13T13:19:58.071Z,9.88
2022-11-13T13:21:59.955Z,12.90
2022-11-13T13:24:25.639Z,11.33
2022-11-13T13:26:30.027Z,11.23
2022-11-13T13:28:32.989Z,11.07
2022-11-13T13:31:09.512Z,9.70
2022-11-13T13:33:47.110Z,9.73
2022-11-13T13:35:57.491Z,9.52
2022-11-13T13:38:21.131Z,9.25
2022-11-13T13:40:44.548Z,10.70
2022-11-13T13:42:52.053Z,9.68
2022-11-13T13:45:28.657Z,11.55
2022-11-13T13:47:49.411Z,10.95
2022-11-13T13:49:52.018Z,9.48
2022-11-13T13:51:56.459Z,10.73
2022-11-13T13:54:01.412Z,10.40
2022-11-13T13:56:04.441Z,11.23
2022-11-13T13:58:15.203Z,9.52
2022-11-13T14:00:19.179Z,9.77
2022-11-13T14:02:23.286Z,10.90
2022-11-13T14:04:28.951Z,13.40
2022-11-13T14:06:30.722Z,11.23
2022-11-13T14:08:32.710Z,13.50
2022-11-13T14:10:36.513Z,11.32
2022-11-13T14:12:42.817Z,12.23
2022-11-13T14:14:44.576Z,10.65
2022-11-13T14:16:51.643Z,11.25
2022-11-13T14:19:05.926Z,9.73
2022-11-13T14:21:17.133Z,11.48
2022-11-13T14:23:41.859Z,11.95
2022-11-13T14:25:44.985Z,10.43
2022-11-13T14:27:46.817Z,9.85
2022-11-13T14:29:51.522Z,10.13
2022-11-13T14:31:53.321Z,10.50
2022-11-13T14:33:55.373Z,11.32
2022-11-13T14:35:58.043Z,10.48
2022-11-13T14:37:59.838Z,11.00
2022-11-13T14:40:14.118Z,11.60
2022-11-13T14:42:23.080Z,12.10
2022-11-13T14:44:34.976Z,11.77
2022-11-13T14:46:45.760Z,11.20
2022-11-13T14:48:54.276Z,10.77
2022-11-13T14:51:03.392Z,10.55
2022-11-13T14:53:08.162Z,11.45
2022-11-13T14:55:41.044Z,17.20
2022-11-13T14:57:49.519Z,19.25
2022-11-13T14:59:51.252Z,28.52
2022-11-13T15:01:59.561Z,20.13
2022-11-13T15:04:01.628Z,16.67
2022-11-13T15:06:03.504Z,16.73
2022-11-13T15:08:05.743Z,15.70
2022-11-13T15:10:13.651Z,15.35
2022-11-13T15:12:15.372Z,15.23
2022-11-13T15:14:19.655Z,15.50
2022-11-13T15:16:28.345Z,14.75
2022-11-13T15:18:30.170Z,10.50
2022-11-13T15:20:32.500Z,12.10
2022-11-13T15:22:35.041Z,14.68
2022-11-13T15:24:36.846Z,14.35
2022-11-13T15:26:39.782Z,12.30
2022-11-13T15:28:41.504Z,10.98
2022-11-13T15:30:43.407Z,11.80
2022-11-13T15:32:45.375Z,12.13
2022-11-13T15:34:47.094Z,12.63
2022-11-13T15:36:48.830Z,10.82
2022-11-13T15:38:50.636Z,11.27
2022-11-13T15:40:52.356Z,11.03
2022-11-13T15:42:54.151Z,9.77
2022-11-13T15:44:55.951Z,9.23
2022-11-13T15:46:57.655Z,9.77
2022-11-13T15:48:59.384Z,9.63
2022-11-13T15:51:01.101Z,8.55
2022-11-13T15:53:05.534Z,11.65
2022-11-13T15:55:24.661Z,10.80
2022-11-13T15:57:29.089Z,13.00
2022-11-13T15:59:30.800Z,11.32
2022-11-13T16:01:32.691Z,10.32
2022-11-13T16:03:39.563Z,10.85
2022-11-13T16:05:41.370Z,10.70
2022-11-13T16:07:43.270Z,10.43
2022-11-13T16:09:45.897Z,9.93
2022-11-13T16:11:47.664Z,9.95
2022-11-13T16:13:49.539Z,11.20
2022-11-13T16:15:51.311Z,10.25
2022-11-13T16:17:57.177Z,10.57
2022-11-13T16:19:58.921Z,11.65
2022-11-13T16:22:00.681Z,10.45
2022-11-13T16:24:02.727Z,9.97
2022-11-13T16:26:05.162Z,10.02
2022-11-13T16:28:17.638Z,11.55
2022-11-13T16:30:21.903Z,12.65
2022-11-13T16:32:23.704Z,11.90
2022-11-13T16:34:25.492Z,12.53
2022-11-13T16:36:27.715Z,13.50
2022-11-13T16:38:29.470Z,14.57
2022-11-13T16:40:31.462Z,14.30
2022-11-13T16:42:33.156Z,17.67
2022-11-13T16:44:35.357Z,15.55
2022-11-13T16:46:41.620Z,19.38
2022-11-13T16:48:43.617Z,22.48
2022-11-13T16:50:45.438Z,18.88
2022-11-13T16:52:47.320Z,21.47
2022-11-13T16:54:49.073Z,28.88
2022-11-13T16:56:50.896Z,22.73
2022-11-13T16:58:52.634Z,22.23
2022-11-13T17:01:00.057Z,21.92
2022-11-13T17:03:02.039Z,21.67
2022-11-13T17:05:04.834Z,23.73
2022-11-13T17:07:06.637Z,26.25
2022-11-13T17:09:09.489Z,23.80
2022-11-13T17:11:13.751Z,26.37
2022-11-13T17:13:15.525Z,26.70
2022-11-13T17:15:17.463Z,27.23
2022-11-13T17:17:19.375Z,24.58
2022-11-13T17:19:21.417Z,25.33
2022-11-13T17:21:25.298Z,25.25
2022-11-13T17:23:27.388Z,29.30
2022-11-13T17:25:29.557Z,27.80
2022-11-13T17:27:31.322Z,28.23
2022-11-13T17:29:33.724Z,32.30
2022-11-13T17:31:35.700Z,29.00
2022-11-13T17:33:37.600Z,24.70
2022-11-13T17:35:39.313Z,24.15
2022-11-13T17:37:41.068Z,28.73
2022-11-13T17:39:42.787Z,28.35
2022-11-13T17:41:44.521Z,32.00
2022-11-13T17:43:46.323Z,28.77
2022-11-13T17:45:51.715Z,31.92
2022-11-13T17:47:53.490Z,32.65
2022-11-13T17:49:56.314Z,32.50
2022-11-13T17:51:58.138Z,36.65
2022-11-13T17:54:00.477Z,35.33
2022-11-13T17:56:05.175Z,33.42
2022-11-13T17:58:07.071Z,36.50
2022-11-13T18:00:09.527Z,31.05
2022-11-13T18:02:11.979Z,31.70
2022-11-13T18:04:13.822Z,35.42
2022-11-13T18:06:19.769Z,36.97
2022-11-13T18:08:21.812Z,39.92
2022-11-13T18:10:23.540Z,38.70
2022-11-13T18:12:25.294Z,37.83
2022-11-13T18:14:27.389Z,36.87
2022-11-13T18:16:34.544Z,39.00
2022-11-13T18:18:36.491Z,40.50
2022-11-13T18:20:40.323Z,40.42
2022-11-13T18:22:42.046Z,40.10
2022-11-13T18:24:44.086Z,41.00
2022-11-13T18:26:46.325Z,40.78
2022-11-13T18:28:48.092Z,43.53
2022-11-13T18:30:56.128Z,46.47
2022-11-13T18:32:58.240Z,52.53
2022-11-13T18:35:00.077Z,89.93
2022-11-13T18:37:01.839Z,92.33
2022-11-13T18:39:04.186Z,85.33
2022-11-13T18:41:11.864Z,88.50
2022-11-13T18:43:15.084Z,82.28
2022-11-13T18:45:16.941Z,96.88
2022-11-13T18:47:18.914Z,107.90
2022-11-13T18:49:20.970Z,93.93
2022-11-13T18:51:28.547Z,80.82
2022-11-13T18:53:31.215Z,69.32
2022-11-13T18:55:33.330Z,64.63
2022-11-13T18:57:35.089Z,68.35
2022-11-13T18:59:36.870Z,65.30
2022-11-13T19:01:39.933Z,60.23
2022-11-13T19:04:01.293Z,60.83
2022-11-13T19:06:07.005Z,48.88
2022-11-13T19:08:08.741Z,44.83
2022-11-13T19:10:10.563Z,41.37
2022-11-13T19:12:12.423Z,31.90
2022-11-13T19:14:16.025Z,34.72
2022-11-13T19:16:20.475Z,31.27
2022-11-13T19:18:22.446Z,28.55
2022-11-13T19:20:24.183Z,26.38
2022-11-13T19:22:25.911Z,20.33
2022-11-13T19:24:27.652Z,17.50
2022-11-13T19:26:29.673Z,18.80
2022-11-13T19:28:31.658Z,16.52
2022-11-13T19:30:34.752Z,20.27
2022-11-13T19:32:36.506Z,23.77
2022-11-13T19:34:41.284Z,26.00
2022-11-13T19:36:49.393Z,29.38
2022-11-13T19:38:52.675Z,27.90
2022-11-13T19:40:54.407Z,28.17
2022-11-13T19:42:56.144Z,27.00
2022-11-13T19:44:57.878Z,21.67
2022-11-13T19:46:59.628Z,24.30
2022-11-13T19:49:01.409Z,20.77
2022-11-13T19:51:09.671Z,22.00
2022-11-13T19:53:11.397Z,18.25
2022-11-13T19:55:13.211Z,18.20
2022-11-13T19:57:14.942Z,16.52
2022-11-13T19:59:16.726Z,15.27
2022-11-13T20:01:26.226Z,15.43
2022-11-13T20:03:29.116Z,15.32
2022-11-13T20:05:30.848Z,14.27
2022-11-13T20:07:32.717Z,14.20
2022-11-13T20:09:34.647Z,18.65
2022-11-13T20:11:37.108Z,15.50
2022-11-13T20:13:39.445Z,17.08
2022-11-13T20:15:41.207Z,16.88
2022-11-13T20:17:43.061Z,16.83
2022-11-13T20:19:44.752Z,14.32
2022-11-13T20:21:46.525Z,19.42
2022-11-13T20:23:48.200Z,17.43
2022-11-13T20:25:58.651Z,16.87
2022-11-13T20:28:00.374Z,17.00
2022-11-13T20:30:02.088Z,13.67
2022-11-13T20:32:03.877Z,14.50
2022-11-13T20:34:05.718Z,16.35
2022-11-13T20:36:08.032Z,14.02
2022-11-13T20:38:10.389Z,13.48
2022-11-13T20:40:12.214Z,13.60
2022-11-13T20:42:14.019Z,15.20
2022-11-13T20:44:15.834Z,14.52
2022-11-13T20:46:19.895Z,28.33
2022-11-13T20:48:21.618Z,15.88
2022-11-13T20:50:23.533Z,17.50
2022-11-13T20:52:25.246Z,13.95
2022-11-13T20:54:27.406Z,13.00
2022-11-13T20:56:29.300Z,14.23
2022-11-13T20:58:31.928Z,13.38
2022-11-13T21:00:33.894Z,13.57
2022-11-13T21:02:35.644Z,14.52
2022-11-13T21:04:37.309Z,20.20
2022-11-13T21:06:39.128Z,13.53
2022-11-13T21:08:40.994Z,14.02
2022-11-13T21:10:42.747Z,13.95
2022-11-13T21:12:44.507Z,15.73
2022-11-13T21:14:46.300Z,13.93
2022-11-13T21:16:47.987Z,13.63
2022-11-13T21:18:49.914Z,13.00
2022-11-13T21:20:52.053Z,20.08
2022-11-13T21:22:53.868Z,22.92
2022-11-13T21:24:55.577Z,35.30
2022-11-13T21:26:57.356Z,19.10
2022-11-13T21:29:00.237Z,13.33
2022-11-13T21:31:02.934Z,18.25
2022-11-13T21:33:04.650Z,19.60
2022-11-13T21:35:06.538Z,15.43
2022-11-13T21:37:08.553Z,19.13
2022-11-13T21:39:10.335Z,22.88
2022-11-13T21:41:23.806Z,16.60
2022-11-13T21:43:25.566Z,17.17
2022-11-13T21:45:27.278Z,20.27
2022-11-13T21:47:29.017Z,18.37
2022-11-13T21:49:30.729Z,14.87
2022-11-13T21:51:35.152Z,16.70
2022-11-13T21:53:37.465Z,17.13
2022-11-13T21:55:39.356Z,20.65
2022-11-13T21:57:41.094Z,21.77
2022-11-13T21:59:42.775Z,14.10
2022-11-13T22:01:44.498Z,14.67
2022-11-13T22:03:46.364Z,33.40
2022-11-13T22:05:48.070Z,24.35
2022-11-13T22:07:49.762Z,18.20
2022-11-13T22:09:51.588Z,34.87
2022-11-13T22:11:53.374Z,18.20
2022-11-13T22:13:55.871Z,15.23
2022-11-13T22:15:57.940Z,18.42
2022-11-13T22:17:59.645Z,20.48
2022-11-13T22:20:01.425Z,21.60
2022-11-13T22:22:03.284Z,38.30
2022-11-13T22:24:05.920Z,42.55
2022-11-13T22:28:16.360Z,28.42
2022-11-13T22:30:18.078Z,26.88
2022-11-13T22:32:19.793Z,19.73
2022-11-13T22:34:21.609Z,20.30
2022-11-13T22:36:31.849Z,23.63
2022-11-13T22:38:34.786Z,17.98
2022-11-13T22:40:36.550Z,22.23
2022-11-13T22:42:38.235Z,20.03
2022-11-13T22:44:54.896Z,40.07
2022-11-13T22:46:57.448Z,17.05
2022-11-13T22:49:01.763Z,16.23
2022-11-13T22:51:07.787Z,27.95
2022-11-13T22:53:10.821Z,19.23
2022-11-13T22:55:12.676Z,26.30
2022-11-13T22:57:14.423Z,20.45
2022-11-13T22:59:16.211Z,27.77
2022-11-13T23:01:20.839Z,81.87
2022-11-13T23:03:22.910Z,17.02
2022-11-13T23:05:24.755Z,22.45
2022-11-13T23:07:26.525Z,20.83
2022-11-13T23:09:29.078Z,41.93
2022-11-13T23:11:34.040Z,20.52
2022-11-13T23:13:35.868Z,39.58
2022-11-13T23:15:37.586Z,58.30
2022-11-13T23:17:39.304Z,69.73
2022-11-13T23:19:41.042Z,21.10
2022-11-13T23:21:45.611Z,17.93
2022-11-13T23:23:47.494Z,16.40
2022-11-13T23:25:49.235Z,63.63
2022-11-13T23:27:51.009Z,28.40
2022-11-13T23:29:53.804Z,18.70
2022-11-13T23:31:55.580Z,17.60
2022-11-13T23:33:57.363Z,35.53
2022-11-13T23:35:59.133Z,40.03
2022-11-13T23:38:00.849Z,31.53
2022-11-13T23:40:02.566Z,27.20
2022-11-13T23:42:04.281Z,23.70
2022-11-13T23:44:09.093Z,23.25
2022-11-13T23:46:11.574Z,19.77
2022-11-13T23:48:13.342Z,25.10
2022-11-13T23:50:15.115Z,19.07
2022-11-13T23:52:16.854Z,16.63
2022-11-13T23:54:18.566Z,29.13
2022-11-13T23:56:20.339Z,24.03
2022-11-13T23:58:22.499Z,26.90
